createdAt,value
2022-11-20T00:01:34.938Z,7.70
2022-11-20T00:04:05.013Z,6.80
2022-11-20T00:06:33.556Z,8.45
2022-11-20T00:09:02.636Z,6.70
2022-11-20T00:11:32.779Z,7.57
2022-11-20T00:14:03.525Z,7.03
2022-11-20T00:16:33.989Z,7.90
2022-11-20T00:19:02.519Z,7.43
2022-11-20T00:21:32.822Z,7.05
2022-11-20T00:24:01.320Z,8.55
2022-11-20T00:28:59.911Z,6.50
2022-11-20T00:31:29.106Z,7.05
2022-11-20T00:33:58.041Z,7.10
2022-11-20T00:36:28.273Z,6.80
2022-11-20T00:38:59.454Z,7.00
2022-11-20T00:41:29.274Z,6.97
2022-11-20T00:43:58.077Z,5.55
2022-11-20T00:46:28.306Z,4.03
2022-11-20T00:48:57.136Z,7.00
2022-11-20T00:51:27.109Z,6.50
2022-11-20T00:53:59.027Z,5.05
2022-11-20T00:56:27.881Z,7.28
2022-11-20T00:58:56.375Z,7.32
2022-11-20T01:01:26.683Z,8.05
2022-11-20T01:03:57.371Z,7.13
2022-11-20T01:06:27.557Z,4.88
2022-11-20T01:08:59.154Z,6.82
2022-11-20T01:11:29.542Z,6.32
2022-11-20T01:13:59.501Z,6.65
2022-11-20T01:16:30.187Z,5.90
2022-11-20T01:19:01.258Z,7.07
2022-11-20T01:21:31.788Z,6.88
2022-11-20T01:24:02.707Z,7.32
2022-11-20T01:26:33.175Z,6.40
2022-11-20T01:29:02.683Z,7.18
2022-11-20T01:31:32.754Z,7.15
2022-11-20T01:34:02.813Z,6.45
2022-11-20T01:36:32.743Z,6.68
2022-11-20T01:39:06.012Z,7.50
2022-11-20T01:41:53.777Z,6.35
2022-11-20T01:44:24.249Z,6.40
2022-11-20T01:46:59.976Z,7.18
2022-11-20T01:49:36.679Z,7.65
2022-11-20T01:52:09.751Z,7.40
2022-11-20T01:54:45.815Z,7.60
2022-11-20T01:57:16.139Z,6.90
2022-11-20T01:59:50.255Z,7.88
2022-11-20T02:02:22.302Z,6.97
2022-11-20T02:04:54.123Z,6.97
2022-11-20T02:07:23.336Z,7.50
2022-11-20T02:09:57.485Z,6.63
2022-11-20T02:12:44.597Z,7.30
2022-11-20T02:15:35.467Z,7.00
2022-11-20T02:18:04.161Z,6.93
2022-11-20T02:23:07.170Z,5.40
2022-11-20T02:25:39.204Z,5.93
2022-11-20T02:28:08.272Z,6.78
2022-11-20T02:30:36.670Z,6.68
2022-11-20T02:33:05.096Z,6.65
2022-11-20T02:35:47.393Z,7.38
2022-11-20T02:38:17.146Z,5.95
2022-11-20T02:40:54.087Z,6.50
2022-11-20T02:43:23.943Z,7.75
2022-11-20T02:45:52.364Z,6.85
2022-11-20T02:48:20.745Z,6.57
2022-11-20T02:50:49.142Z,5.95
2022-11-20T02:53:17.549Z,6.03
2022-11-20T02:55:47.356Z,6.50
2022-11-20T02:58:15.824Z,6.80
2022-11-20T03:00:44.222Z,6.03
2022-11-20T03:03:12.596Z,5.93
2022-11-20T03:05:41.038Z,6.43
2022-11-20T03:08:09.614Z,6.68
2022-11-20T03:13:07.645Z,5.60
2022-11-20T03:15:37.683Z,6.22
2022-11-20T03:18:06.541Z,6.40
2022-11-20T03:20:35.952Z,6.15
2022-11-20T03:23:05.006Z,7.53
2022-11-20T03:25:33.502Z,8.35
2022-11-20T03:28:01.867Z,7.00
2022-11-20T03:30:31.730Z,6.85
2022-11-20T03:33:00.233Z,7.03
2022-11-20T03:35:28.658Z,5.38
2022-11-20T03:37:57.178Z,7.75
2022-11-20T03:40:28.198Z,6.18
2022-11-20T03:42:57.028Z,6.88
2022-11-20T03:45:27.511Z,6.95
2022-11-20T03:47:57.371Z,6.68
2022-11-20T03:50:28.973Z,7.15
2022-11-20T03:52:57.393Z,7.38
2022-11-20T03:55:25.779Z,7.55
2022-11-20T03:57:54.290Z,7.15
2022-11-20T04:02:53.401Z,5.70
2022-11-20T04:05:23.337Z,7.70
2022-11-20T04:07:51.875Z,6.82
2022-11-20T04:10:20.425Z,6.45
2022-11-20T04:15:17.606Z,7.82
2022-11-20T04:17:45.965Z,7.85
2022-11-20T04:20:14.546Z,7.88
2022-11-20T04:22:44.470Z,7.18
2022-11-20T04:25:13.071Z,7.38
2022-11-20T04:30:10.786Z,7.60
2022-11-20T04:32:40.066Z,7.55
2022-11-20T04:35:08.973Z,7.47
2022-11-20T04:37:37.466Z,7.50
2022-11-20T04:40:08.498Z,8.57
2022-11-20T04:42:36.960Z,7.55
2022-11-20T04:45:05.801Z,7.68
2022-11-20T04:47:34.191Z,7.65
2022-11-20T04:50:02.616Z,7.20
2022-11-20T04:52:32.036Z,7.55
2022-11-20T04:55:00.553Z,6.57
2022-11-20T04:57:30.395Z,7.53
2022-11-20T04:59:58.958Z,7.30
2022-11-20T05:04:55.543Z,6.97
2022-11-20T05:07:24.060Z,8.73
2022-11-20T05:09:52.472Z,7.50
2022-11-20T05:12:20.948Z,8.38
2022-11-20T05:14:50.730Z,6.95
2022-11-20T05:17:19.259Z,7.95
2022-11-20T05:19:52.875Z,7.07
2022-11-20T05:22:21.669Z,7.65
2022-11-20T05:24:50.139Z,7.72
2022-11-20T05:27:18.612Z,8.02
2022-11-20T05:29:47.024Z,7.32
2022-11-20T05:32:16.923Z,8.68
2022-11-20T05:34:45.323Z,7.15
2022-11-20T05:37:13.699Z,7.90
2022-11-20T05:39:42.084Z,7.35
2022-11-20T05:42:28.131Z,7.95
2022-11-20T05:44:56.610Z,7.00
2022-11-20T05:47:26.671Z,7.75
2022-11-20T05:49:55.252Z,8.38
2022-11-20T05:52:23.812Z,8.38
2022-11-20T05:54:52.312Z,7.68
2022-11-20T05:57:20.725Z,8.45
2022-11-20T05:59:49.229Z,7.72
2022-11-20T06:02:17.807Z,7.15
2022-11-20T06:07:15.873Z,7.05
2022-11-20T06:09:44.330Z,8.35
2022-11-20T06:12:12.813Z,7.20
2022-11-20T06:14:41.224Z,7.35
2022-11-20T06:17:09.679Z,8.45
2022-11-20T06:19:38.154Z,8.35
2022-11-20T06:22:08.119Z,7.57
2022-11-20T06:24:36.613Z,7.45
2022-11-20T06:27:05.384Z,6.88
2022-11-20T06:29:34.294Z,7.35
2022-11-20T06:32:02.941Z,7.63
2022-11-20T06:36:59.547Z,7.47
2022-11-20T06:39:29.330Z,7.40
2022-11-20T06:41:59.218Z,7.47
2022-11-20T06:44:28.265Z,7.53
2022-11-20T06:46:56.667Z,8.52
2022-11-20T06:49:26.256Z,8.35
2022-11-20T06:51:54.877Z,7.28
2022-11-20T06:54:23.930Z,7.20
2022-11-20T06:56:53.704Z,7.38
2022-11-20T06:59:22.643Z,8.32
2022-11-20T07:01:51.558Z,7.30
2022-11-20T07:04:19.986Z,11.05
2022-11-20T07:06:48.432Z,8.45
2022-11-20T07:09:17.459Z,8.25
2022-11-20T07:11:45.877Z,7.30
2022-11-20T07:14:15.797Z,8.73
2022-11-20T07:16:44.390Z,6.50
2022-11-20T07:21:41.086Z,6.32
2022-11-20T07:24:09.590Z,7.20
2022-11-20T07:26:38.063Z,7.20
2022-11-20T07:29:06.762Z,6.00
2022-11-20T07:31:36.828Z,6.35
2022-11-20T07:34:05.812Z,7.00
2022-11-20T07:36:34.265Z,6.72
2022-11-20T07:39:02.915Z,7.57
2022-11-20T07:44:01.447Z,7.40
2022-11-20T07:46:30.022Z,6.80
2022-11-20T07:48:59.904Z,7.45
2022-11-20T07:51:28.486Z,6.93
2022-11-20T07:56:57.190Z,6.25
2022-11-20T07:59:26.214Z,7.68
2022-11-20T08:01:55.958Z,7.15
2022-11-20T08:04:26.040Z,7.63
2022-11-20T08:06:54.718Z,7.53
2022-11-20T08:09:23.458Z,8.05
2022-11-20T08:12:28.828Z,7.55
2022-11-20T08:15:41.246Z,7.40
2022-11-20T08:18:33.401Z,8.48
2022-11-20T08:21:06.262Z,9.23
2022-11-20T08:23:34.887Z,8.25
2022-11-20T08:28:31.469Z,7.88
2022-11-20T08:31:03.623Z,7.88
2022-11-20T08:33:33.703Z,7.85
2022-11-20T08:36:03.210Z,7.50
2022-11-20T08:38:33.783Z,7.88
2022-11-20T08:41:20.497Z,7.05
2022-11-20T08:43:49.005Z,7.18
2022-11-20T08:46:17.465Z,7.15
2022-11-20T08:48:46.500Z,7.55
2022-11-20T08:51:15.595Z,8.00
2022-11-20T08:53:45.608Z,7.90
2022-11-20T08:56:14.478Z,8.25
2022-11-20T08:59:10.324Z,7.82
2022-11-20T09:01:31.861Z,7.45
2022-11-20T09:04:00.993Z,8.40
2022-11-20T09:06:29.636Z,7.63
2022-11-20T09:09:03.503Z,8.52
2022-11-20T09:11:34.917Z,8.93
2022-11-20T09:16:32.394Z,8.50
2022-11-20T09:19:34.060Z,8.10
2022-11-20T09:21:49.648Z,8.20
2022-11-20T09:26:55.466Z,8.13
2022-11-20T09:29:25.281Z,8.23
2022-11-20T09:31:53.928Z,7.63
2022-11-20T09:36:50.725Z,7.88
2022-11-20T09:39:21.594Z,8.10
2022-11-20T09:42:05.774Z,8.95
2022-11-20T09:45:11.152Z,8.25
2022-11-20T09:47:52.845Z,7.88
2022-11-20T09:50:32.042Z,8.48
2022-11-20T09:53:16.120Z,8.45
2022-11-20T09:55:49.294Z,10.60
2022-11-20T09:58:30.509Z,10.80
2022-11-20T10:01:03.185Z,8.68
2022-11-20T10:03:42.939Z,8.88
2022-11-20T10:06:15.960Z,8.57
2022-11-20T10:08:47.597Z,9.13
2022-11-20T10:11:27.746Z,9.70
2022-11-20T10:14:09.444Z,13.13
2022-11-20T10:16:48.757Z,10.13
2022-11-20T10:19:33.141Z,9.68
2022-11-20T10:22:12.181Z,9.55
2022-11-20T10:24:47.073Z,9.90
2022-11-20T10:27:35.061Z,9.25
2022-11-20T10:30:05.888Z,9.35
2022-11-20T10:32:40.037Z,8.68
2022-11-20T10:35:21.312Z,9.75
2022-11-20T10:37:55.635Z,9.13
2022-11-20T10:40:34.886Z,10.30
2022-11-20T10:43:14.432Z,10.18
2022-11-20T10:45:53.317Z,10.70
2022-11-20T10:48:24.625Z,8.68
2022-11-20T10:51:06.157Z,9.75
2022-11-20T10:53:47.756Z,9.95
2022-11-20T10:56:22.532Z,10.88
2022-11-20T10:59:03.306Z,10.82
2022-11-20T11:01:31.847Z,10.43
2022-11-20T11:04:01.203Z,10.20
2022-11-20T11:06:37.685Z,10.60
2022-11-20T11:09:14.154Z,10.43
2022-11-20T11:11:42.662Z,11.10
2022-11-20T11:14:16.408Z,11.60
2022-11-20T11:16:53.043Z,11.23
2022-11-20T11:19:22.148Z,10.27
2022-11-20T11:21:55.842Z,11.18
2022-11-20T11:24:41.652Z,10.43
2022-11-20T11:27:17.528Z,10.95
2022-11-20T11:29:47.941Z,12.32
2022-11-20T11:32:18.291Z,11.50
2022-11-20T11:34:47.181Z,11.40
2022-11-20T11:37:22.632Z,10.75
2022-11-20T11:40:03.957Z,12.43
2022-11-20T11:42:45.069Z,12.02
2022-11-20T11:45:18.455Z,12.02
2022-11-20T11:47:49.806Z,12.30
2022-11-20T11:50:22.245Z,12.75
2022-11-20T11:52:58.791Z,13.48
2022-11-20T11:55:36.000Z,12.88
2022-11-20T11:58:16.744Z,12.13
2022-11-20T12:00:57.788Z,13.45
2022-11-20T12:03:31.731Z,13.73
2022-11-20T12:06:05.198Z,12.85
2022-11-20T12:08:39.666Z,13.93
2022-11-20T12:11:15.890Z,12.10
2022-11-20T12:13:51.037Z,12.90
2022-11-20T12:16:22.883Z,12.35
2022-11-20T12:18:54.461Z,12.43
2022-11-20T12:21:30.599Z,12.93
2022-11-20T12:24:17.996Z,12.35
2022-11-20T12:26:58.993Z,12.18
2022-11-20T12:29:37.692Z,11.57
2022-11-20T12:32:33.857Z,12.23
2022-11-20T12:35:13.780Z,10.45
2022-11-20T12:37:54.525Z,10.63
2022-11-20T12:40:35.387Z,11.45
2022-11-20T12:43:30.802Z,11.98
2022-11-20T12:46:15.895Z,10.32
2022-11-20T12:49:06.029Z,11.93
2022-11-20T12:51:50.767Z,11.18
2022-11-20T12:54:44.525Z,11.60
2022-11-20T12:57:20.801Z,10.93
2022-11-20T13:00:15.027Z,11.85
2022-11-20T13:03:15.000Z,12.63
2022-11-20T13:06:02.454Z,10.85
2022-11-20T13:08:35.199Z,12.30
2022-11-20T13:11:12.426Z,12.02
2022-11-20T13:13:50.103Z,12.57
2022-11-20T13:16:27.250Z,12.67
2022-11-20T13:18:56.059Z,12.07
2022-11-20T13:21:38.983Z,12.95
2022-11-20T13:24:08.317Z,11.55
2022-11-20T13:26:36.920Z,11.77
2022-11-20T13:31:39.579Z,11.18
2022-11-20T13:34:16.104Z,11.70
2022-11-20T13:36:54.363Z,13.32
2022-11-20T13:39:29.723Z,12.50
2022-11-20T13:41:59.443Z,12.38
2022-11-20T13:44:32.026Z,13.20
2022-11-20T13:47:09.905Z,14.25
2022-11-20T13:49:45.351Z,13.30
2022-11-20T13:52:42.093Z,13.65
2022-11-20T13:55:44.988Z,16.33
2022-11-20T13:58:38.550Z,15.32
2022-11-20T14:01:17.641Z,14.82
2022-11-20T14:06:47.334Z,15.20
2022-11-20T14:09:29.006Z,14.13
2022-11-20T14:11:58.312Z,15.00
2022-11-20T14:14:28.592Z,15.63
2022-11-20T14:17:08.345Z,15.77
2022-11-20T14:19:38.266Z,17.60
2022-11-20T14:22:13.313Z,15.85
2022-11-20T14:24:43.367Z,14.73
2022-11-20T14:27:16.779Z,15.60
2022-11-20T14:29:47.062Z,14.98
2022-11-20T14:32:18.619Z,14.30
2022-11-20T14:34:49.500Z,14.68
2022-11-20T14:37:22.868Z,14.25
2022-11-20T14:39:55.357Z,14.82
2022-11-20T14:42:26.231Z,14.38
2022-11-20T14:44:57.765Z,14.38
2022-11-20T14:47:29.210Z,13.68
2022-11-20T14:49:59.524Z,14.95
2022-11-20T14:52:29.538Z,13.90
2022-11-20T14:55:01.156Z,15.18
2022-11-20T14:57:34.316Z,19.67
2022-11-20T15:00:18.183Z,23.05
2022-11-20T15:02:51.527Z,18.90
2022-11-20T15:05:21.833Z,16.38
2022-11-20T15:07:52.167Z,16.75
2022-11-20T15:10:27.387Z,16.60
2022-11-20T15:12:58.035Z,16.08
2022-11-20T15:15:32.399Z,18.77
2022-11-20T15:18:01.699Z,18.23
2022-11-20T15:20:33.195Z,16.02
2022-11-20T15:23:01.930Z,16.45
2022-11-20T15:28:00.323Z,16.48
2022-11-20T15:30:28.704Z,16.67
2022-11-20T15:32:57.135Z,16.08
2022-11-20T15:35:25.678Z,15.45
2022-11-20T15:37:54.647Z,14.93
2022-11-20T15:40:23.026Z,15.27
2022-11-20T15:43:09.929Z,15.65
2022-11-20T15:45:44.007Z,14.30
2022-11-20T15:48:16.585Z,15.55
2022-11-20T15:50:53.145Z,15.50
2022-11-20T15:53:21.788Z,14.90
2022-11-20T15:55:50.451Z,16.58
2022-11-20T16:00:49.947Z,16.23
2022-11-20T16:03:19.995Z,14.73
2022-11-20T16:05:49.090Z,15.38
2022-11-20T16:08:18.678Z,14.52
2022-11-20T16:10:54.677Z,15.52
2022-11-20T16:13:42.315Z,15.85
2022-11-20T16:16:20.925Z,15.00
2022-11-20T16:18:49.594Z,15.77
2022-11-20T16:21:18.383Z,14.77
2022-11-20T16:23:46.839Z,15.43
2022-11-20T16:26:16.962Z,13.30
2022-11-20T16:28:47.103Z,15.95
2022-11-20T16:31:17.690Z,16.13
2022-11-20T16:33:52.043Z,17.00
2022-11-20T16:36:22.394Z,17.30
2022-11-20T16:38:54.737Z,17.55
2022-11-20T16:41:23.374Z,18.77
2022-11-20T16:43:55.018Z,19.65
2022-11-20T16:46:24.854Z,17.63
2022-11-20T16:48:57.616Z,17.75
2022-11-20T16:51:27.233Z,15.68
2022-11-20T16:53:56.468Z,15.52
2022-11-20T16:56:26.832Z,24.13
2022-11-20T16:58:58.649Z,18.08
2022-11-20T17:01:29.212Z,15.43
2022-11-20T17:03:59.489Z,16.08
2022-11-20T17:06:30.061Z,17.10
2022-11-20T17:08:59.553Z,16.60
2022-11-20T17:11:28.897Z,17.30
2022-11-20T17:14:00.661Z,14.45
2022-11-20T17:16:29.573Z,15.75
2022-11-20T17:19:03.408Z,16.52
2022-11-20T17:21:33.056Z,15.48
2022-11-20T17:24:03.719Z,16.15
2022-11-20T17:26:32.218Z,16.05
2022-11-20T17:29:03.865Z,14.82
2022-11-20T17:31:34.884Z,15.50
2022-11-20T17:34:03.673Z,16.27
2022-11-20T17:44:00.354Z,15.00
2022-11-20T17:46:32.878Z,16.13
2022-11-20T17:49:02.307Z,17.35
2022-11-20T17:51:32.219Z,17.77
2022-11-20T17:54:03.013Z,17.13
2022-11-20T17:56:53.767Z,17.40
2022-11-20T17:59:24.239Z,17.40
2022-11-20T18:01:55.553Z,17.15
2022-11-20T18:04:26.387Z,18.27
2022-11-20T18:06:54.983Z,18.27
2022-11-20T18:09:23.417Z,19.02
2022-11-20T18:11:52.015Z,18.23
2022-11-20T18:17:06.658Z,14.98
2022-11-20T18:19:41.130Z,17.70
2022-11-20T18:22:17.605Z,15.35
2022-11-20T18:24:46.375Z,16.02
2022-11-20T18:29:46.610Z,13.65
2022-11-20T18:32:16.644Z,17.25
2022-11-20T18:34:45.150Z,16.55
2022-11-20T18:37:15.661Z,16.95
2022-11-20T18:39:46.538Z,14.80
2022-11-20T18:42:34.286Z,18.05
2022-11-20T18:45:04.593Z,16.63
2022-11-20T18:47:38.099Z,14.52
2022-11-20T18:50:08.717Z,15.95
2022-11-20T18:52:44.672Z,17.08
2022-11-20T18:55:14.210Z,16.65
2022-11-20T18:57:42.683Z,17.08
2022-11-20T19:00:12.209Z,15.43
2022-11-20T19:02:43.630Z,15.52
2022-11-20T19:05:12.897Z,14.75
2022-11-20T19:07:41.649Z,16.08
2022-11-20T19:10:10.758Z,14.98
2022-11-20T19:12:39.213Z,17.75
2022-11-20T19:15:08.451Z,17.73
2022-11-20T19:17:37.001Z,18.92
2022-11-20T19:20:07.809Z,13.98
2022-11-20T19:22:36.251Z,13.75
2022-11-20T19:25:05.203Z,13.75
2022-11-20T19:27:33.746Z,15.35
2022-11-20T19:30:03.778Z,15.45
2022-11-20T19:32:35.423Z,15.30
2022-11-20T19:35:04.814Z,15.90
2022-11-20T19:37:36.085Z,15.15
2022-11-20T19:40:05.579Z,14.63
2022-11-20T19:42:34.163Z,13.85
2022-11-20T19:45:02.619Z,14.20
2022-11-20T19:48:05.910Z,13.48
2022-11-20T19:50:21.706Z,12.23
2022-11-20T19:52:57.236Z,13.93
2022-11-20T19:55:27.391Z,12.32
2022-11-20T19:57:58.419Z,16.17
2022-11-20T20:00:32.305Z,14.52
2022-11-20T20:03:01.322Z,14.75
2022-11-20T20:05:29.801Z,12.35
2022-11-20T20:10:29.615Z,11.75
2022-11-20T20:12:58.420Z,14.63
2022-11-20T20:15:27.245Z,14.85
2022-11-20T20:17:56.173Z,14.00
2022-11-20T20:20:25.015Z,14.88
2022-11-20T20:22:53.508Z,12.25
2022-11-20T20:25:23.336Z,12.63
2022-11-20T20:27:51.779Z,13.98
2022-11-20T20:30:20.288Z,12.20
2022-11-20T20:35:24.600Z,11.70
2022-11-20T20:40:22.725Z,13.13
2022-11-20T20:42:51.181Z,13.95
2022-11-20T20:45:19.555Z,13.95
2022-11-20T20:47:47.998Z,12.50
2022-11-20T20:50:16.769Z,14.07
2022-11-20T20:52:45.848Z,13.85
2022-11-20T20:55:14.348Z,12.13
2022-11-20T21:00:13.086Z,14.30
2022-11-20T21:02:41.577Z,12.88
2022-11-20T21:05:10.999Z,13.32
2022-11-20T21:07:59.571Z,14.40
2022-11-20T21:10:28.186Z,12.32
2022-11-20T21:12:58.112Z,11.95
2022-11-20T21:15:26.572Z,12.32
2022-11-20T21:17:55.046Z,12.63
2022-11-20T21:20:41.304Z,12.80
2022-11-20T21:23:11.096Z,13.43
2022-11-20T21:25:40.401Z,12.38
2022-11-20T21:28:14.369Z,13.25
2022-11-20T21:30:45.851Z,12.85
2022-11-20T21:33:14.529Z,14.00
2022-11-20T21:38:11.106Z,11.63
2022-11-20T21:40:39.501Z,11.85
2022-11-20T21:43:09.359Z,12.52
2022-11-20T21:45:37.922Z,11.45
2022-11-20T21:48:07.199Z,11.20
2022-11-20T21:50:36.260Z,13.02
2022-11-20T21:53:04.751Z,12.63
2022-11-20T21:55:33.220Z,11.40
2022-11-20T21:58:01.630Z,12.20
2022-11-20T22:00:31.613Z,12.25
2022-11-20T22:03:00.133Z,11.40
2022-11-20T22:05:28.561Z,10.73
2022-11-20T22:07:57.030Z,11.15
2022-11-20T22:10:25.703Z,12.50
2022-11-20T22:15:59.943Z,11.75
2022-11-20T22:18:29.642Z,11.55
2022-11-20T22:20:58.123Z,12.23
2022-11-20T22:23:26.769Z,11.70
2022-11-20T22:28:23.457Z,11.48
2022-11-20T22:30:53.276Z,10.63
2022-11-20T22:33:21.692Z,10.82
2022-11-20T22:35:50.196Z,12.52
2022-11-20T22:38:18.711Z,12.18
2022-11-20T22:40:48.648Z,12.77
2022-11-20T22:43:17.221Z,11.45
2022-11-20T22:45:46.620Z,12.45
2022-11-20T22:48:16.485Z,10.63
2022-11-20T22:50:45.318Z,10.63
2022-11-20T22:53:13.755Z,12.27
2022-11-20T22:55:42.152Z,10.35
2022-11-20T22:58:10.504Z,11.35
2022-11-20T23:00:38.938Z,12.68
2022-11-20T23:03:07.405Z,10.80
2022-11-20T23:05:37.178Z,11.80
2022-11-20T23:08:06.002Z,12.02
2022-11-20T23:10:34.442Z,11.73
2022-11-20T23:13:02.858Z,11.48
2022-11-20T23:15:31.319Z,13.10
2022-11-20T23:17:59.783Z,10.10
2022-11-20T23:20:28.179Z,12.63
2022-11-20T23:22:57.963Z,10.45
2022-11-20T23:25:26.411Z,12.75
2022-11-20T23:27:55.465Z,11.63
2022-11-20T23:30:23.857Z,11.80
2022-11-20T23:32:52.285Z,9.95
2022-11-20T23:35:20.806Z,10.38
2022-11-20T23:40:18.962Z,9.32
2022-11-20T23:43:01.217Z,9.70
2022-11-20T23:45:29.723Z,9.90
2022-11-20T23:47:58.694Z,10.55
2022-11-20T23:50:27.063Z,9.43
2022-11-20T23:52:55.472Z,7.97
2022-11-20T23:55:25.319Z,9.18
2022-11-20T23:57:53.788Z,8.20
